Time;durP1;ratioP1;P1;durP2;ratioP2;P2;SDS_P1;SDS_P2;PMS_P1;PMS_P2;Temp;Humidity;BMP_temperature;BMP_pressure;BME280_temperature;BME280_humidity;BME280_pressure;Samples;Min_cycle;Max_cycle;Signal;HPM_P1;HPM_P2
2023/07/11 00:00:33;;;;;;;15.30;5.40;;;;;;;19.99;79.92;100408.71;110093;1276;22207;-60
2023/07/11 00:03:24;;;;;;;14.80;6.00;;;;;;;19.95;80.24;100404.97;110146;1272;22205;-60
2023/07/11 00:06:02;;;;;;;17.70;5.50;;;;;;;19.92;80.69;100401.02;110062;1272;22630;-60
2023/07/11 00:08:33;;;;;;;13.70;5.70;;;;;;;19.91;80.67;100400.61;110097;1272;22134;-60
2023/07/11 00:11:03;;;;;;;11.90;5.40;;;;;;;19.90;80.64;100403.67;110122;1279;22141;-60
2023/07/11 00:13:34;;;;;;;11.80;5.40;;;;;;;19.90;80.78;100406.55;110152;1279;22326;-60
2023/07/11 00:16:08;;;;;;;17.00;5.80;;;;;;;19.89;81.08;100405.08;110152;1275;22203;-60
2023/07/11 00:18:39;;;;;;;14.90;6.90;;;;;;;19.85;81.17;100409.41;110117;1266;22191;-60
2023/07/11 00:21:10;;;;;;;14.20;6.00;;;;;;;19.81;81.32;100411.44;110117;1272;22164;-60
2023/07/11 00:23:41;;;;;;;13.10;6.10;;;;;;;19.77;81.80;100417.48;110135;1272;22933;-60
2023/07/11 00:26:12;;;;;;;13.80;5.80;;;;;;;19.72;81.80;100419.10;110123;1272;22374;-60
2023/07/11 00:28:43;;;;;;;12.70;5.90;;;;;;;19.71;81.89;100418.34;110170;1269;22774;-59
2023/07/11 00:31:15;;;;;;;21.30;8.30;;;;;;;19.68;82.13;100422.15;110159;1273;22968;-60
2023/07/11 00:33:49;;;;;;;14.10;6.00;;;;;;;19.66;82.06;100420.42;110148;1272;22940;-60
2023/07/11 00:36:21;;;;;;;15.60;6.50;;;;;;;19.64;82.41;100426.00;110141;1265;22178;-60
2023/07/11 00:38:52;;;;;;;13.20;6.00;;;;;;;19.61;82.57;100431.42;110169;1272;22627;-60
2023/07/11 00:41:23;;;;;;;13.50;6.30;;;;;;;19.54;83.07;100441.83;110103;1273;22111;-60
2023/07/11 00:43:53;;;;;;;13.80;5.50;;;;;;;19.45;83.65;100439.51;110202;1272;22152;-60
2023/07/11 00:46:24;;;;;;;10.50;5.50;;;;;;;19.37;83.84;100435.16;110154;1275;22299;-60
2023/07/11 00:48:58;;;;;;;12.90;5.90;;;;;;;19.30;83.97;100446.17;110168;1265;22225;-59
2023/07/11 00:51:34;;;;;;;14.70;6.80;;;;;;;19.23;83.90;100446.88;110098;1272;22324;-60
2023/07/11 00:54:08;;;;;;;15.70;6.40;;;;;;;19.17;84.07;100446.71;110146;1272;22343;-60
2023/07/11 00:56:44;;;;;;;12.60;6.00;;;;;;;19.10;84.13;100450.23;110146;1276;22136;-60
2023/07/11 00:59:17;;;;;;;20.30;6.70;;;;;;;19.07;84.67;100451.21;110159;1273;23095;-60
2023/07/11 01:01:51;;;;;;;13.60;5.90;;;;;;;19.02;84.85;100453.73;110074;1279;22134;-60
2023/07/11 01:04:22;;;;;;;13.20;5.80;;;;;;;18.96;84.94;100455.47;110107;1272;22309;-60
2023/07/11 01:06:53;;;;;;;16.40;6.00;;;;;;;18.91;85.05;100455.77;110157;1272;22442;-60
2023/07/11 01:09:24;;;;;;;15.70;6.20;;;;;;;18.87;84.89;100459.83;110102;1273;22869;-60
2023/07/11 01:11:58;;;;;;;13.90;6.40;;;;;;;18.83;84.84;100456.64;110178;1273;22176;-60
2023/07/11 01:14:29;;;;;;;16.60;6.00;;;;;;;18.79;85.16;100458.48;110105;1265;22321;-60
2023/07/11 01:17:00;;;;;;;16.20;6.30;;;;;;;18.78;85.20;100461.28;110192;1279;22196;-60
2023/07/11 01:19:31;;;;;;;15.50;5.70;;;;;;;18.75;85.08;100462.02;110164;1269;22163;-60
2023/07/11 01:22:02;;;;;;;17.20;6.40;;;;;;;18.70;85.36;100462.63;110118;1273;22306;-60
2023/07/11 01:24:33;;;;;;;14.00;6.40;;;;;;;18.65;85.44;100464.95;110129;1272;22132;-60
2023/07/11 01:27:04;;;;;;;13.90;6.00;;;;;;;18.60;85.39;100468.09;110144;1276;22436;-60
2023/07/11 01:29:36;;;;;;;14.10;4.80;;;;;;;18.56;85.53;100470.90;110125;1272;22260;-60
2023/07/11 01:32:08;;;;;;;13.30;5.10;;;;;;;18.51;85.50;100472.90;110175;1273;22855;-59
2023/07/11 01:34:39;;;;;;;12.40;5.60;;;;;;;18.46;85.55;100469.11;110177;1279;22346;-60
2023/07/11 01:37:10;;;;;;;12.60;5.50;;;;;;;18.39;85.60;100471.75;110152;1272;22143;-60
2023/07/11 01:39:41;;;;;;;15.80;6.30;;;;;;;18.34;85.80;100471.09;110137;1278;22255;-60
2023/07/11 01:42:12;;;;;;;16.30;5.70;;;;;;;18.28;85.87;100466.15;110158;1272;22382;-60
2023/07/11 01:44:43;;;;;;;16.10;5.80;;;;;;;18.24;85.87;100466.44;110144;1275;22209;-60
2023/07/11 01:47:14;;;;;;;14.90;6.20;;;;;;;18.22;85.91;100468.16;110154;1273;23172;-60
2023/07/11 01:49:45;;;;;;;14.50;6.20;;;;;;;18.20;85.73;100460.88;110195;1272;22167;-60
2023/07/11 01:52:19;;;;;;;12.50;5.90;;;;;;;18.18;86.00;100452.05;110147;1272;22937;-60
2023/07/11 01:54:51;;;;;;;11.80;5.40;;;;;;;18.15;85.90;100450.13;110162;1269;22230;-60
2023/07/11 01:57:22;;;;;;;12.70;5.20;;;;;;;18.13;86.02;100449.11;110091;1276;22139;-59
2023/07/11 01:59:53;;;;;;;14.40;5.60;;;;;;;18.13;85.90;100451.52;110145;1276;22221;-60
2023/07/11 02:02:24;;;;;;;12.80;4.80;;;;;;;18.13;85.80;100448.80;110102;1268;22142;-59
2023/07/11 02:04:55;;;;;;;13.40;5.00;;;;;;;18.12;85.81;100451.13;110163;1269;22980;-60
2023/07/11 02:07:26;;;;;;;15.30;5.60;;;;;;;18.11;85.80;100451.09;110153;1265;23052;-60
2023/07/11 02:09:57;;;;;;;15.90;5.70;;;;;;;18.10;85.84;100451.92;110188;1275;23247;-60
2023/07/11 02:12:28;;;;;;;12.50;4.90;;;;;;;18.09;85.76;100458.05;110133;1272;22158;-60
2023/07/11 02:14:59;;;;;;;12.00;5.00;;;;;;;18.06;85.84;100455.16;110159;1272;22175;-60
2023/07/11 02:17:30;;;;;;;12.40;6.10;;;;;;;18.02;85.87;100461.84;110155;1273;22147;-60
2023/07/11 02:20:01;;;;;;;15.80;6.10;;;;;;;17.99;86.10;100465.05;110162;1272;22211;-60
2023/07/11 02:22:32;;;;;;;14.30;5.50;;;;;;;17.94;86.17;100464.77;110150;1275;22138;-60
2023/07/11 02:25:03;;;;;;;15.20;5.70;;;;;;;17.89;86.19;100462.87;110185;1273;23249;-60
2023/07/11 02:27:34;;;;;;;14.70;5.60;;;;;;;17.83;86.40;100463.73;110168;1273;22175;-60
2023/07/11 02:30:06;;;;;;;13.30;4.90;;;;;;;17.79;86.55;100465.20;110131;1267;22342;-60
2023/07/11 02:32:39;;;;;;;13.70;5.10;;;;;;;17.75;86.49;100462.04;110143;1276;22134;-58
2023/07/11 02:35:11;;;;;;;13.70;5.80;;;;;;;17.70;86.78;100462.33;110142;1279;22974;-59
2023/07/11 02:37:41;;;;;;;15.50;5.30;;;;;;;17.67;86.76;100461.48;110120;1279;22266;-59
2023/07/11 02:40:13;;;;;;;19.60;5.30;;;;;;;17.65;86.99;100463.79;110151;1276;22200;-59
2023/07/11 02:42:44;;;;;;;13.80;5.70;;;;;;;17.62;87.13;100464.42;110097;1279;22153;-58
2023/07/11 02:45:15;;;;;;;16.80;5.00;;;;;;;17.58;87.18;100472.31;110089;1273;22137;-59
2023/07/11 02:47:45;;;;;;;15.70;4.80;;;;;;;17.53;87.24;100472.60;110124;1273;22368;-57
2023/07/11 02:50:17;;;;;;;12.00;4.70;;;;;;;17.50;87.42;100474.92;110122;1272;22327;-59
2023/07/11 02:52:49;;;;;;;13.40;5.40;;;;;;;17.47;87.50;100468.14;110102;1279;22208;-58
2023/07/11 02:55:20;;;;;;;17.30;7.90;;;;;;;17.46;87.58;100473.27;110130;1273;22248;-59
2023/07/11 02:57:51;;;;;;;14.60;5.40;;;;;;;17.46;87.70;100472.71;110141;1275;22896;-58
2023/07/11 03:00:22;;;;;;;11.60;5.40;;;;;;;17.46;88.03;100475.21;110079;1275;22150;-59
2023/07/11 03:02:53;;;;;;;16.10;5.20;;;;;;;17.47;87.90;100476.80;110126;1268;22207;-59
2023/07/11 03:05:23;;;;;;;16.10;5.30;;;;;;;17.48;88.06;100477.95;110094;1272;22197;-58
2023/07/11 03:07:54;;;;;;;12.30;5.10;;;;;;;17.48;88.09;100477.89;110104;1279;22272;-59
2023/07/11 03:10:25;;;;;;;13.30;5.40;;;;;;;17.50;88.15;100477.42;110083;1272;22197;-59
2023/07/11 03:12:56;;;;;;;17.30;5.60;;;;;;;17.52;88.22;100480.41;110116;1273;22964;-58
2023/07/11 03:15:27;;;;;;;13.50;5.30;;;;;;;17.54;88.19;100482.52;110069;1277;22190;-58
2023/07/11 03:17:57;;;;;;;13.40;5.40;;;;;;;17.55;88.32;100482.75;110099;1273;22150;-59
2023/07/11 03:20:28;;;;;;;11.60;5.10;;;;;;;17.55;88.34;100487.98;110110;1273;22907;-58
2023/07/11 03:22:59;;;;;;;14.00;5.40;;;;;;;17.55;88.51;100489.06;110097;1279;22168;-57
2023/07/11 03:25:30;;;;;;;11.50;4.90;;;;;;;17.54;88.61;100493.58;110083;1272;23390;-59
2023/07/11 03:28:01;;;;;;;14.80;5.30;;;;;;;17.56;88.71;100495.01;110089;1269;22224;-59
2023/07/11 03:30:34;;;;;;;14.80;5.20;;;;;;;17.58;88.79;100495.86;110135;1273;22158;-59
2023/07/11 03:33:05;;;;;;;13.20;4.80;;;;;;;17.59;88.84;100500.63;110092;1275;22190;-59
2023/07/11 03:35:36;;;;;;;12.10;4.70;;;;;;;17.60;89.00;100499.77;110117;1273;22221;-58
2023/07/11 03:38:07;;;;;;;12.80;6.40;;;;;;;17.62;89.13;100501.55;110132;1273;22908;-59
2023/07/11 03:40:38;;;;;;;11.80;5.70;;;;;;;17.61;89.30;100500.72;109251;1273;22538;-59
2023/07/11 03:43:09;;;;;;;14.60;6.00;;;;;;;17.61;89.25;100499.60;106061;1278;25781;-58
2023/07/11 03:45:45;;;;;;;12.00;4.70;;;;;;;17.63;89.46;100503.75;106072;1272;22525;-59
2023/07/11 03:48:17;;;;;;;13.60;6.10;;;;;;;17.63;89.48;100504.48;110076;1273;22139;-59
2023/07/11 03:50:48;;;;;;;14.80;5.90;;;;;;;17.64;89.39;100503.23;110085;1275;22620;-58
2023/07/11 03:53:19;;;;;;;12.20;4.80;;;;;;;17.66;89.52;100508.86;110111;1272;22412;-59
2023/07/11 03:55:50;;;;;;;13.10;4.90;;;;;;;17.68;89.58;100511.02;110121;1275;22780;-59
2023/07/11 03:58:21;;;;;;;14.70;5.10;;;;;;;17.68;89.69;100512.40;110110;1272;22177;-59
2023/07/11 04:00:52;;;;;;;12.00;5.00;;;;;;;17.69;89.86;100514.02;110110;1275;22171;-59
2023/07/11 04:03:23;;;;;;;12.20;4.80;;;;;;;17.69;89.95;100519.89;110110;1276;22195;-59
2023/07/11 04:05:56;;;;;;;14.30;5.50;;;;;;;17.69;90.10;100519.90;110100;1272;22875;-59
2023/07/11 04:08:27;;;;;;;11.70;4.40;;;;;;;17.68;90.23;100522.83;110059;1273;22149;-59
2023/07/11 04:11:01;;;;;;;15.30;5.80;;;;;;;17.69;90.38;100523.33;110117;1279;22167;-59
2023/07/11 04:13:32;;;;;;;14.50;4.50;;;;;;;17.71;90.47;100527.06;110079;1279;22249;-58
2023/07/11 04:16:03;;;;;;;11.50;4.70;;;;;;;17.73;90.55;100523.30;110134;1272;22976;-60
2023/07/11 04:18:34;;;;;;;12.70;4.80;;;;;;;17.76;90.71;100529.85;110109;1275;22203;-59
2023/07/11 04:21:05;;;;;;;14.50;4.50;;;;;;;17.79;90.79;100532.30;110121;1275;22363;-59
2023/07/11 04:23:36;;;;;;;11.20;3.90;;;;;;;17.83;90.97;100535.16;110093;1272;22142;-59
2023/07/11 04:26:07;;;;;;;12.80;4.80;;;;;;;17.88;91.04;100533.90;110138;1276;22341;-58
2023/07/11 04:28:38;;;;;;;13.20;4.90;;;;;;;17.92;90.81;100529.71;110096;1279;23396;-58
2023/07/11 04:31:09;;;;;;;14.30;5.10;;;;;;;17.97;90.66;100524.55;110136;1275;22324;-58
2023/07/11 04:33:40;;;;;;;12.50;4.10;;;;;;;18.02;90.54;100532.20;110102;1269;22163;-59
2023/07/11 04:36:13;;;;;;;9.40;3.70;;;;;;;18.07;90.58;100529.87;110102;1269;22161;-59
2023/07/11 04:38:45;;;;;;;11.30;4.00;;;;;;;18.12;90.30;100531.59;110074;1266;22207;-59
2023/07/11 04:41:16;;;;;;;11.10;4.40;;;;;;;18.19;90.23;100531.42;110092;1272;22316;-59
2023/07/11 04:43:47;;;;;;;11.60;4.10;;;;;;;18.23;90.09;100533.13;110105;1279;22112;-58
2023/07/11 04:46:18;;;;;;;10.60;4.00;;;;;;;18.28;89.91;100532.85;110109;1275;23061;-59
2023/07/11 04:48:49;;;;;;;10.60;3.80;;;;;;;18.32;89.56;100535.85;110121;1273;22155;-59
2023/07/11 04:51:19;;;;;;;14.90;4.30;;;;;;;18.36;89.42;100538.55;110084;1272;22137;-59
2023/07/11 04:53:51;;;;;;;13.50;4.70;;;;;;;18.40;89.37;100542.73;110085;1276;22143;-60
2023/07/11 04:56:22;;;;;;;11.30;3.50;;;;;;;18.44;89.04;100539.06;110135;1272;22184;-60
2023/07/11 04:58:53;;;;;;;14.30;4.00;;;;;;;18.49;88.79;100540.06;110146;1275;23183;-61
2023/07/11 05:04:19;;;;;;;14.70;3.70;;;;;;;18.57;88.63;100541.47;110093;1273;22731;-60
2023/07/11 05:06:50;;;;;;;13.40;3.40;;;;;;;18.62;88.50;100543.44;110130;1273;22851;-60
2023/07/11 05:09:21;;;;;;;10.40;3.50;;;;;;;18.69;88.49;100546.92;110078;1270;22198;-60
2023/07/11 05:11:53;;;;;;;15.80;3.30;;;;;;;18.75;88.10;100550.02;110161;1269;22150;-60
2023/07/11 05:14:24;;;;;;;10.00;3.10;;;;;;;18.79;87.83;100546.95;110097;1272;22303;-60
2023/07/11 05:16:54;;;;;;;13.70;3.50;;;;;;;18.83;87.78;100546.74;110169;1276;22199;-60
2023/07/11 05:19:26;;;;;;;14.80;4.20;;;;;;;18.89;87.67;100554.96;110134;1275;22168;-60
2023/07/11 05:21:56;;;;;;;11.60;3.50;;;;;;;18.94;87.54;100555.42;110155;1276;22932;-59
2023/07/11 05:24:27;;;;;;;10.10;3.10;;;;;;;18.98;87.39;100550.80;110130;1269;22202;-60
2023/07/11 05:26:58;;;;;;;10.30;3.00;;;;;;;19.03;87.05;100548.91;110154;1277;22221;-60
2023/07/11 05:29:30;;;;;;;12.80;3.90;;;;;;;19.03;86.98;100550.29;110144;1272;22253;-60
2023/07/11 05:32:01;;;;;;;12.10;3.40;;;;;;;19.06;86.67;100547.02;110152;1279;22270;-60
2023/07/11 05:34:32;;;;;;;10.90;3.10;;;;;;;19.06;86.46;100554.68;110143;1277;22156;-60
2023/07/11 05:37:03;;;;;;;10.30;3.20;;;;;;;19.05;86.49;100557.94;110134;1266;22425;-60
2023/07/11 05:39:34;;;;;;;12.50;3.70;;;;;;;19.09;86.53;100560.88;110157;1275;23119;-60
2023/07/11 05:42:06;;;;;;;10.10;3.30;;;;;;;19.12;86.20;100557.23;110125;1276;22395;-60
2023/07/11 05:44:37;;;;;;;9.40;2.30;;;;;;;19.13;86.24;100558.98;110128;1275;22930;-61
2023/07/11 05:47:08;;;;;;;11.60;3.80;;;;;;;19.15;85.97;100556.71;110159;1273;22169;-60
2023/07/11 05:49:39;;;;;;;11.40;3.20;;;;;;;19.13;85.77;100549.06;110119;1279;22899;-60
2023/07/11 05:52:10;;;;;;;10.90;3.10;;;;;;;19.14;85.86;100554.61;110128;1276;22526;-60
2023/07/11 05:54:41;;;;;;;9.30;2.80;;;;;;;19.18;85.96;100557.65;110132;1277;22269;-60
2023/07/11 05:57:12;;;;;;;10.10;2.90;;;;;;;19.27;86.00;100554.92;110121;1273;22242;-61
2023/07/11 05:59:43;;;;;;;7.00;2.70;;;;;;;19.39;85.83;100553.02;110154;1276;22240;-60
2023/07/11 06:02:14;;;;;;;9.20;2.30;;;;;;;19.50;85.23;100552.92;110135;1272;23270;-60
2023/07/11 06:04:45;;;;;;;7.20;2.30;;;;;;;19.59;84.65;100550.66;110163;1279;22316;-60
2023/07/11 06:07:16;;;;;;;10.60;3.40;;;;;;;19.67;84.48;100551.21;110135;1276;22228;-60
2023/07/11 06:09:47;;;;;;;8.00;1.90;;;;;;;19.71;83.77;100555.18;110129;1279;22224;-60
2023/07/11 06:12:18;;;;;;;9.70;3.10;;;;;;;19.71;83.56;100558.46;110167;1269;23126;-60
2023/07/11 06:14:49;;;;;;;11.00;2.50;;;;;;;19.78;83.62;100557.14;110141;1275;22590;-60
2023/07/11 06:17:20;;;;;;;10.30;2.50;;;;;;;19.86;83.28;100550.48;110128;1273;22241;-60
2023/07/11 06:19:51;;;;;;;7.40;1.90;;;;;;;19.97;83.28;100556.93;110147;1276;22319;-60
2023/07/11 06:22:22;;;;;;;8.00;2.20;;;;;;;20.12;83.22;100560.58;110156;1269;22146;-60
2023/07/11 06:24:52;;;;;;;7.50;2.30;;;;;;;20.26;82.29;100559.36;110132;1273;22243;-60
2023/07/11 06:27:23;;;;;;;9.60;2.10;;;;;;;20.34;82.01;100557.85;110076;1276;22187;-60
2023/07/11 06:29:55;;;;;;;7.10;2.40;;;;;;;20.38;82.08;100560.40;105999;1278;5422278;-60
2023/07/11 06:32:25;;;;;;;10.30;2.60;;;;;;;20.43;81.81;100559.70;110085;1271;22146;-60
2023/07/11 06:34:56;;;;;;;7.30;2.50;;;;;;;20.46;81.45;100562.45;110129;1279;22184;-60
2023/07/11 06:37:27;;;;;;;9.90;2.10;;;;;;;20.50;81.05;100559.30;110089;1276;22149;-60
2023/07/11 06:39:58;;;;;;;9.10;2.40;;;;;;;20.45;80.51;100552.71;110119;1276;22303;-60
2023/07/11 06:42:29;;;;;;;10.00;2.10;;;;;;;20.43;80.50;100554.98;110107;1269;22844;-60
2023/07/11 06:45:00;;;;;;;8.50;2.00;;;;;;;20.39;80.13;100555.24;110108;1278;22161;-61
2023/07/11 06:47:31;;;;;;;8.30;1.90;;;;;;;20.34;79.55;100553.88;110127;1272;23276;-60
2023/07/11 06:50:02;;;;;;;8.80;1.80;;;;;;;20.33;79.08;100550.75;110111;1276;23058;-60
2023/07/11 06:52:33;;;;;;;7.90;1.90;;;;;;;20.36;79.09;100550.70;110121;1276;22201;-61
2023/07/11 06:55:04;;;;;;;8.10;2.00;;;;;;;20.42;79.29;100550.09;110150;1272;22383;-60
2023/07/11 06:57:35;;;;;;;6.50;1.90;;;;;;;20.51;78.87;100545.59;110126;1273;22294;-60
2023/07/11 07:00:09;;;;;;;7.70;2.30;;;;;;;20.60;78.47;100545.14;110088;1273;22332;-60
2023/07/11 07:02:41;;;;;;;9.80;2.00;;;;;;;20.68;78.34;100540.02;110096;1276;22950;-60
2023/07/11 07:05:12;;;;;;;6.50;1.90;;;;;;;20.77;77.72;100544.08;110083;1273;23140;-60
2023/07/11 07:07:43;;;;;;;6.40;1.50;;;;;;;20.89;77.05;100551.19;110114;1279;22257;-60
2023/07/11 07:10:13;;;;;;;6.00;1.70;;;;;;;20.99;76.66;100551.94;110111;1276;22179;-61
2023/07/11 07:12:44;;;;;;;6.60;1.70;;;;;;;21.06;76.13;100551.93;110118;1273;22786;-63
2023/07/11 07:15:15;;;;;;;6.00;1.50;;;;;;;21.11;75.74;100552.19;110098;1274;22179;-60
2023/07/11 07:17:46;;;;;;;5.90;1.30;;;;;;;21.18;74.95;100551.91;110072;1279;22399;-61
2023/07/11 07:20:18;;;;;;;4.50;1.20;;;;;;;21.24;73.29;100555.04;110070;1273;22361;-61
2023/07/11 07:22:50;;;;;;;4.70;1.50;;;;;;;21.25;72.61;100548.47;110036;1280;23310;-61
2023/07/11 07:25:21;;;;;;;6.00;1.50;;;;;;;21.26;72.65;100549.12;110067;1269;22156;-61
2023/07/11 07:27:52;;;;;;;9.60;1.40;;;;;;;21.32;71.80;100553.11;110053;1273;22196;-61
2023/07/11 07:30:23;;;;;;;3.60;1.20;;;;;;;21.39;71.99;100547.27;110022;1273;22400;-61
2023/07/11 07:32:54;;;;;;;4.80;1.10;;;;;;;21.45;71.70;100544.14;110019;1279;22177;-61
2023/07/11 07:35:25;;;;;;;5.10;1.50;;;;;;;21.54;71.54;100544.63;110054;1276;22312;-61
2023/07/11 07:37:56;;;;;;;6.40;1.50;;;;;;;21.64;70.80;100541.27;110034;1274;22303;-61
2023/07/11 07:40:28;;;;;;;9.50;1.60;;;;;;;21.73;70.99;100537.75;110027;1274;22142;-61
2023/07/11 07:42:58;;;;;;;5.00;1.40;;;;;;;21.82;70.47;100532.88;110039;1267;22925;-61
2023/07/11 07:45:29;;;;;;;4.80;1.00;;;;;;;21.90;69.62;100534.46;110063;1273;22150;-61
2023/07/11 07:48:00;;;;;;;4.20;1.00;;;;;;;21.98;68.48;100533.21;110019;1276;22262;-61
2023/07/11 07:50:31;;;;;;;5.80;1.40;;;;;;;22.05;67.24;100529.41;110034;1272;23060;-62
2023/07/11 07:53:02;;;;;;;5.20;1.20;;;;;;;22.15;67.39;100533.64;110028;1274;22329;-63
2023/07/11 07:55:36;;;;;;;5.20;1.30;;;;;;;22.18;66.71;100532.22;110038;1274;22410;-64
2023/07/11 07:58:08;;;;;;;7.60;1.40;;;;;;;22.19;66.48;100533.94;110034;1273;22404;-63
2023/07/11 08:00:40;;;;;;;6.70;1.50;;;;;;;22.22;65.69;100534.27;110067;1274;22871;-64
2023/07/11 08:03:11;;;;;;;5.10;1.40;;;;;;;22.23;65.38;100530.60;110029;1276;22975;-64
2023/07/11 08:05:42;;;;;;;8.10;1.60;;;;;;;22.28;65.31;100529.59;110016;1276;22894;-62
2023/07/11 08:08:13;;;;;;;3.30;1.10;;;;;;;22.34;64.88;100528.14;106979;1273;22520;-63
2023/07/11 08:10:44;;;;;;;3.40;1.00;;;;;;;22.41;64.09;100531.27;105974;1279;22589;-62
2023/07/11 08:13:15;;;;;;;5.60;1.10;;;;;;;22.46;62.39;100536.80;106035;1273;22522;-62
2023/07/11 08:15:46;;;;;;;5.80;1.20;;;;;;;22.46;62.59;100528.77;105924;1273;24219;-63
2023/07/11 08:18:17;;;;;;;5.10;1.40;;;;;;;22.51;62.91;100527.09;105981;1272;22549;-62
2023/07/11 08:20:48;;;;;;;5.20;1.30;;;;;;;22.60;63.15;100525.77;106000;1273;22885;-62
2023/07/11 08:23:19;;;;;;;4.50;1.10;;;;;;;22.68;63.36;100522.66;105986;1268;24324;-63
2023/07/11 08:25:54;;;;;;;6.00;1.40;;;;;;;22.79;60.82;100522.80;110017;1279;22372;-64
2023/07/11 08:28:25;;;;;;;5.10;1.30;;;;;;;22.82;60.72;100523.49;110071;1279;22631;-64
2023/07/11 08:30:56;;;;;;;5.50;1.20;;;;;;;22.86;61.52;100528.14;110071;1276;22284;-63
2023/07/11 08:33:27;;;;;;;4.30;1.30;;;;;;;22.92;61.63;100517.31;110074;1273;22173;-63
2023/07/11 08:35:59;;;;;;;5.70;1.50;;;;;;;22.97;61.07;100523.75;110071;1273;22331;-62
2023/07/11 08:38:30;;;;;;;3.40;0.80;;;;;;;22.97;60.46;100519.21;110103;1273;23053;-64
2023/07/11 08:41:08;;;;;;;8.90;0.90;;;;;;;23.03;58.68;100526.34;110100;1280;22151;-62
2023/07/11 08:43:40;;;;;;;5.00;0.90;;;;;;;23.08;58.57;100520.64;110062;1280;22899;-63
2023/07/11 08:46:14;;;;;;;4.30;0.80;;;;;;;23.11;57.34;100525.45;110058;1279;22231;-64
2023/07/11 08:48:51;;;;;;;2.60;0.70;;;;;;;23.12;57.16;100521.63;110106;1270;22193;-62
2023/07/11 08:51:28;;;;;;;5.40;0.90;;;;;;;23.16;56.50;100520.70;110073;1272;22198;-64
2023/07/11 08:54:05;;;;;;;6.30;0.80;;;;;;;23.23;56.33;100519.02;110077;1276;22406;-62
2023/07/11 08:56:39;;;;;;;6.10;0.90;;;;;;;23.32;55.91;100521.14;110113;1273;22163;-64
2023/07/11 08:59:14;;;;;;;4.70;1.10;;;;;;;23.38;56.20;100523.88;110081;1267;22430;-63
2023/07/11 09:01:50;;;;;;;3.90;0.80;;;;;;;23.42;53.32;100522.84;110119;1273;22227;-63
2023/07/11 09:04:26;;;;;;;3.30;0.80;;;;;;;23.48;53.05;100522.64;109978;1279;23049;-63
2023/07/11 09:07:00;;;;;;;3.10;0.60;;;;;;;23.58;53.31;100518.75;110090;1273;22238;-63
2023/07/11 09:09:32;;;;;;;3.00;0.70;;;;;;;23.67;52.73;100510.67;110111;1272;22729;-64
2023/07/11 09:12:19;;;;;;;5.40;0.70;;;;;;;23.72;52.42;100507.77;110065;1274;22171;-63
2023/07/11 09:15:02;;;;;;;5.10;0.80;;;;;;;23.78;52.58;100508.63;110018;1267;22269;-64
2023/07/11 09:17:48;;;;;;;7.50;0.80;;;;;;;23.84;51.84;100513.36;110062;1273;22242;-63
2023/07/11 09:20:27;;;;;;;3.80;0.80;;;;;;;23.89;52.09;100507.70;110081;1272;22361;-63
2023/07/11 09:23:20;;;;;;;3.70;0.80;;;;;;;23.91;51.67;100502.56;110076;1280;22196;-63
2023/07/11 09:25:56;;;;;;;4.70;1.00;;;;;;;23.94;51.95;100498.11;110066;1280;22156;-63
2023/07/11 09:28:33;;;;;;;5.10;1.10;;;;;;;24.01;51.83;100491.41;109994;1277;22219;-62
2023/07/11 09:31:11;;;;;;;5.50;0.80;;;;;;;24.08;51.25;100498.05;110110;1274;22351;-64
2023/07/11 09:33:47;;;;;;;6.30;0.70;;;;;;;24.14;51.04;100495.76;110119;1272;22180;-63
2023/07/11 09:36:22;;;;;;;2.40;0.60;;;;;;;24.19;50.62;100490.21;110074;1272;22984;-64
2023/07/11 09:39:00;;;;;;;2.00;0.60;;;;;;;24.22;50.00;100488.27;110072;1273;22201;-61
2023/07/11 09:41:41;;;;;;;3.80;0.70;;;;;;;24.26;49.55;100484.96;110063;1267;23134;-61
2023/07/11 09:44:14;;;;;;;5.70;1.20;;;;;;;24.31;49.12;100482.53;110079;1273;22317;-62
2023/07/11 09:46:45;;;;;;;2.50;0.70;;;;;;;24.31;49.37;100478.23;110084;1267;22186;-62
2023/07/11 09:49:23;;;;;;;3.70;0.90;;;;;;;24.33;48.89;100478.66;110089;1272;22194;-61
2023/07/11 09:51:59;;;;;;;7.80;0.90;;;;;;;24.31;48.63;100470.33;110073;1278;22693;-63
2023/07/11 09:54:44;;;;;;;3.60;0.80;;;;;;;24.35;48.54;100474.09;110072;1272;22187;-63
2023/07/11 09:57:17;;;;;;;5.50;1.00;;;;;;;24.40;48.39;100478.00;110143;1273;22337;-64
2023/07/11 10:00:00;;;;;;;2.60;0.70;;;;;;;24.45;47.77;100481.67;110090;1273;23092;-64
2023/07/11 10:02:31;;;;;;;4.20;0.80;;;;;;;24.47;47.55;100475.92;110061;1273;22986;-64
2023/07/11 10:05:02;;;;;;;5.50;0.80;;;;;;;24.54;47.14;100471.73;110096;1279;22310;-64
2023/07/11 10:07:34;;;;;;;5.50;0.70;;;;;;;24.61;46.85;100473.48;110112;1273;22154;-63
2023/07/11 10:10:13;;;;;;;7.30;1.00;;;;;;;24.67;46.17;100475.72;110079;1276;22439;-63
2023/07/11 10:12:46;;;;;;;3.30;0.70;;;;;;;24.70;46.27;100469.00;110017;1275;22261;-64
2023/07/11 10:15:19;;;;;;;3.90;0.60;;;;;;;24.71;46.06;100466.85;110072;1276;22272;-63
2023/07/11 10:17:55;;;;;;;6.70;0.80;;;;;;;24.76;46.31;100463.71;110091;1273;23193;-64
2023/07/11 10:20:26;;;;;;;9.30;0.80;;;;;;;24.79;45.66;100467.60;110060;1273;22256;-63
2023/07/11 10:23:06;;;;;;;4.90;0.70;;;;;;;24.78;45.09;100455.19;110095;1280;22216;-64
2023/07/11 10:25:35;;;;;;;;;;;;;;;24.84;45.05;100461.23;110016;1273;22436;-63
2023/07/11 10:28:15;;;;;;;3.90;0.70;;;;;;;24.90;45.22;100461.44;110072;1273;22202;-63
2023/07/11 10:30:47;;;;;;;3.10;0.70;;;;;;;25.02;45.48;100460.42;110086;1272;22493;-63
2023/07/11 10:33:24;;;;;;;5.20;0.80;;;;;;;25.13;45.09;100458.53;110090;1268;23117;-63
2023/07/11 10:36:03;;;;;;;2.60;0.60;;;;;;;25.14;44.52;100454.35;110131;1273;22280;-62
2023/07/11 10:38:45;;;;;;;4.40;0.70;;;;;;;25.19;44.35;100450.81;110090;1272;22226;-64
2023/07/11 10:41:23;;;;;;;4.70;0.80;;;;;;;25.25;44.01;100448.52;110178;1271;22245;-64
2023/07/11 10:43:55;;;;;;;7.00;0.90;;;;;;;25.32;43.89;100452.71;110169;1269;22961;-64
2023/07/11 10:46:36;;;;;;;4.60;0.80;;;;;;;25.38;43.54;100445.56;110069;1272;23044;-63
2023/07/11 10:49:14;;;;;;;3.40;0.70;;;;;;;25.38;43.09;100441.66;110002;1273;22263;-62
2023/07/11 10:51:55;;;;;;;4.60;0.90;;;;;;;25.45;43.31;100436.20;110134;1272;22223;-63
2023/07/11 10:54:39;;;;;;;3.40;0.80;;;;;;;25.55;42.94;100435.67;110077;1272;22124;-67
2023/07/11 10:57:18;;;;;;;3.80;0.70;;;;;;;25.64;42.56;100434.34;110045;1269;22146;-65
2023/07/11 10:59:49;;;;;;;4.60;1.00;;;;;;;25.68;42.33;100436.26;110161;1272;22240;-63
2023/07/11 11:02:26;;;;;;;4.30;0.80;;;;;;;25.69;42.39;100433.80;110156;1272;22427;-63
2023/07/11 11:05:10;;;;;;;2.30;0.50;;;;;;;25.73;42.02;100431.13;110144;1272;22183;-63
2023/07/11 11:07:44;;;;;;;5.00;0.80;;;;;;;25.78;42.16;100431.75;110148;1279;22189;-64
2023/07/11 11:10:22;;;;;;;3.00;0.70;;;;;;;25.86;41.83;100434.55;110101;1274;22169;-63
2023/07/11 11:13:03;;;;;;;3.10;0.60;;;;;;;25.86;41.99;100428.73;110152;1267;22230;-64
2023/07/11 11:15:52;;;;;;;3.80;0.70;;;;;;;25.93;41.07;100430.16;110107;1275;22213;-64
2023/07/11 11:18:40;;;;;;;2.00;0.50;;;;;;;25.94;39.99;100421.87;110039;1269;22232;-64
2023/07/11 11:21:19;;;;;;;4.30;0.50;;;;;;;25.88;39.89;100421.34;110016;1275;22194;-64
2023/07/11 11:24:09;;;;;;;3.20;0.60;;;;;;;25.84;39.70;100420.27;110119;1275;22228;-63
2023/07/11 11:26:51;;;;;;;3.40;0.60;;;;;;;25.87;39.77;100423.03;110089;1272;22889;-64
2023/07/11 11:29:32;;;;;;;3.30;0.70;;;;;;;25.93;40.03;100424.86;110037;1272;22216;-63
2023/07/11 11:32:14;;;;;;;7.70;0.60;;;;;;;25.97;39.40;100424.15;110065;1272;23040;-63
2023/07/11 11:35:03;;;;;;;2.60;0.70;;;;;;;25.96;39.34;100421.90;110089;1272;22227;-60
2023/07/11 11:37:41;;;;;;;3.80;0.70;;;;;;;25.97;39.45;100416.22;110105;1279;22772;-64
2023/07/11 11:40:17;;;;;;;3.40;0.70;;;;;;;25.99;39.56;100418.11;110126;1272;22986;-61
2023/07/11 11:42:55;;;;;;;4.40;0.90;;;;;;;26.02;39.68;100409.85;110108;1276;22188;-61